Waco, Nebraska
Current Conditions -  °F | °C
As of 8:35 AM on Thursday 30 Oct 2014 (Local Time) from KJYR Reporting Station
Clear Clear  
Wind Chill: 37°   Ceiling: Unl
Heat Index: 43°   Visibility: 10mi
Dew Point: 36°   Wind: 9mph
Humidity: 76%   Direction: 300°WNW
Pressure: 30.09"   Gusts: NA
Location:  40.9°N, 97.46°W
Report Text: KJYR 301335Z AUTO 30008KT 10SM CLR 06/02 A3009 RMK AO2
Loading
Personal Weather Stations






























Interactive Weather Map
Tropical Storm Tracking
New forecast layout! Learn more

10-Day Weather Forecast

Advertisements
Track Severe Weather on mobile